»·PEaware :: N123SX KLAS-KSJC

N123SX :: KLAS-KSJC

FLIGHT INFORMATION

Flight Status: Arrived
Operator: Privately registered:
United States
More flights under this callsign
Pilot: Shawn G. (7208)
Aircraft: ECLIPSE 500
(EA50)
More flights by this aircraft type
Origin: KLAS McCarran Intl
United States
Destination: KSJC Mineta San Jose Intl
United States
More flights between these airports :: More routes between these airports
Route: SHEAD9 KENNO RUSME RAZRR4
File this flight plan on PilotEdge
Remarks:
Altitude:
(Current/Filed)
26,000ft
Speed:
(Current/Filed)
340kts
Departed: 12-Aug-17 08:33 PM
Arrived: 12-Aug-17 09:52 PM
Distance/Time
Traveled:
335nm/1:19
Distance/Time
To Go:
Arrived

Flight Plot

Page will automatically refresh every two minutes.

Flight plan parsing failed; only flown route is shown


Map Options




Map Legend


Flown Route
Filed Route
Departure Airport
Arrival Airport
Navaid (VOR, NDB)
Fix

Horizontal Profiles

Position Reports

Time Latitude Longitude Heading Altitude Ground
Speed
12-Aug-17 20:20 36.099906 -115.160142 34 2114ft 0kts
12-Aug-17 20:22 36.099906 -115.160142 34 2114ft 0kts
12-Aug-17 20:23 36.099906 -115.160142 34 2114ft 0kts
12-Aug-17 20:24 36.099906 -115.160142 34 2114ft 0kts
12-Aug-17 20:25 36.099906 -115.160142 34 2114ft 0kts
12-Aug-17 20:26 36.099906 -115.160142 34 2114ft 0kts
12-Aug-17 20:27 36.099906 -115.160142 34 2114ft 0kts
12-Aug-17 20:28 36.099906 -115.160142 34 2114ft 0kts
12-Aug-17 20:29 36.099906 -115.160142 34 2114ft 0kts
12-Aug-17 20:30 36.099906 -115.160142 34 2114ft 0kts
12-Aug-17 20:31 36.099906 -115.160142 34 2114ft 0kts
12-Aug-17 20:32 36.099906 -115.160142 34 2114ft 0kts
12-Aug-17 20:33 36.099906 -115.160142 34 2114ft 0kts
12-Aug-17 20:34 36.099906 -115.160142 34 2114ft 0kts
12-Aug-17 20:35 36.099806 -115.159705 115 2114ft 7kts
12-Aug-17 20:36 36.099870 -115.157530 84 2114ft 0kts
12-Aug-17 20:37 36.096132 -115.158386 204 2114ft 70kts
12-Aug-17 20:38 36.062280 -115.177923 204 3322ft 169kts
12-Aug-17 20:39 36.020074 -115.202240 216 6001ft 171kts
12-Aug-17 20:40 35.991567 -115.259332 240 7028ft 249kts
12-Aug-17 20:41 35.948569 -115.327124 226 8976ft 256kts
12-Aug-17 20:42 35.896029 -115.395609 244 9053ft 277kts
12-Aug-17 20:43 35.890238 -115.492067 267 10012ft 300kts
12-Aug-17 20:44 35.890380 -115.598162 268 10900ft 316kts
12-Aug-17 20:45 35.891779 -115.702353 268 11950ft 315kts
12-Aug-17 20:46 35.893457 -115.807823 268 13450ft 304kts
12-Aug-17 20:47 35.895070 -115.907683 267 16088ft 252kts
12-Aug-17 20:48 35.905183 -115.976292 307 18984ft 215kts
12-Aug-17 20:49 35.947426 -116.027841 307 20513ft 217kts
12-Aug-17 20:50 35.990996 -116.079345 307 21910ft 220kts
12-Aug-17 20:51 36.035509 -116.131192 307 23207ft 222kts
12-Aug-17 20:52 36.080773 -116.183642 307 24394ft 224kts
12-Aug-17 20:52 36.118023 -116.226767 306 25280ft 226kts
12-Aug-17 20:53 36.164591 -116.280832 307 25943ft 243kts
12-Aug-17 20:55 36.226995 -116.353374 308 25943ft 283kts
12-Aug-17 20:56 36.286594 -116.422536 309 25941ft 305kts
12-Aug-17 20:56 36.338814 -116.483263 309 25941ft 316kts
12-Aug-17 20:57 36.403841 -116.559078 309 25940ft 325kts
12-Aug-17 20:58 36.470026 -116.636458 309 25939ft 330kts
12-Aug-17 20:59 36.536790 -116.714726 309 25939ft 335kts
12-Aug-17 21:00 36.612822 -116.783952 320 25941ft 346kts
12-Aug-17 21:01 36.694592 -116.846690 321 25947ft 348kts
12-Aug-17 21:02 36.776971 -116.909564 321 25943ft 348kts
12-Aug-17 21:03 36.858899 -116.972137 321 25978ft 346kts
12-Aug-17 21:04 36.940313 -117.034433 322 26058ft 343kts
12-Aug-17 21:05 37.021126 -117.096657 323 26090ft 341kts
12-Aug-17 21:06 37.100725 -117.158012 325 26086ft 338kts
12-Aug-17 21:07 37.180729 -117.219411 326 26091ft 338kts
12-Aug-17 21:08 37.260204 -117.280648 326 26090ft 337kts
12-Aug-17 21:09 37.335167 -117.350218 318 26089ft 335kts
12-Aug-17 21:10 37.406083 -117.425443 318 26068ft 336kts
12-Aug-17 21:11 37.475413 -117.502748 303 26026ft 334kts
12-Aug-17 21:12 37.483273 -117.617630 269 26022ft 335kts
12-Aug-17 21:13 37.476750 -117.733495 267 26012ft 336kts
12-Aug-17 21:14 37.468055 -117.850796 266 26001ft 337kts
12-Aug-17 21:15 37.458774 -117.967837 266 26000ft 338kts
12-Aug-17 21:16 37.449234 -118.085113 266 25999ft 338kts
12-Aug-17 21:17 37.439542 -118.202409 266 25999ft 338kts
12-Aug-17 21:18 37.429761 -118.319392 266 26025ft 337kts
12-Aug-17 21:19 37.417656 -118.436119 265 26025ft 338kts
12-Aug-17 21:20 37.407821 -118.553142 266 26024ft 339kts
12-Aug-17 21:21 37.398629 -118.669063 266 26126ft 336kts
12-Aug-17 21:22 37.388459 -118.785698 262 26250ft 336kts
12-Aug-17 21:23 37.373562 -118.901265 264 26283ft 340kts
12-Aug-17 21:24 37.358138 -119.019272 258 26283ft 345kts
12-Aug-17 21:25 37.341721 -119.138071 259 26282ft 347kts
12-Aug-17 21:26 37.325261 -119.257686 259 26282ft 349kts
12-Aug-17 21:27 37.308534 -119.378257 259 26155ft 353kts
12-Aug-17 21:28 37.291549 -119.499784 259 25964ft 356kts
12-Aug-17 21:29 37.273630 -119.621478 258 25903ft 354kts
12-Aug-17 21:30 37.256158 -119.741806 258 24839ft 378kts
12-Aug-17 21:31 37.237918 -119.873077 258 24061ft 382kts
12-Aug-17 21:32 37.222094 -120.002051 260 23611ft 368kts
12-Aug-17 21:33 37.208238 -120.129119 260 22604ft 368kts
12-Aug-17 21:34 37.194728 -120.255464 260 21412ft 364kts
12-Aug-17 21:35 37.181560 -120.379658 260 19967ft 355kts
12-Aug-17 21:36 37.167935 -120.501406 260 18601ft 352kts
12-Aug-17 21:37 37.154451 -120.621749 260 17187ft 346kts
12-Aug-17 21:38 37.142157 -120.732387 260 15943ft 339kts
12-Aug-17 21:39 37.129073 -120.849506 260 14926ft 333kts
12-Aug-17 21:40 37.116208 -120.964109 260 13283ft 329kts
12-Aug-17 21:41 37.103850 -121.074651 261 11480ft 315kts
12-Aug-17 21:42 37.104275 -121.179486 278 9906ft 278kts
12-Aug-17 21:43 37.115259 -121.276121 278 8906ft 281kts
12-Aug-17 21:44 37.126306 -121.372206 279 8011ft 277kts
12-Aug-17 21:45 37.137121 -121.468352 278 7634ft 287kts
12-Aug-17 21:46 37.147669 -121.563427 279 5911ft 271kts
12-Aug-17 21:47 37.157824 -121.654684 278 4652ft 261kts
12-Aug-17 21:48 37.180707 -121.730432 319 4004ft 217kts
12-Aug-17 21:49 37.225412 -121.779594 319 3461ft 218kts
12-Aug-17 21:50 37.263256 -121.821035 319 2502ft 134kts
12-Aug-17 21:51 37.290814 -121.851145 318 1777ft 127kts
12-Aug-17 21:52 37.313444 -121.875935 318 1184ft 97kts
12-Aug-17 21:53 37.333538 -121.897939 318 674ft 95kts
12-Aug-17 21:54 37.353427 -121.919742 318 173ft 94kts
12-Aug-17 21:55 37.367024 -121.934971 221 45ft 6kts
12-Aug-17 21:56 37.365735 -121.936709 230 46ft 7kts
12-Aug-17 21:57 37.362369 -121.933782 137 46ft 26kts
12-Aug-17 21:58 37.359282 -121.931220 131 46ft 2kts
12-Aug-17 21:59 37.359337 -121.931107 42 46ft 0kts

Navigation Log

Ident Type
Flight plan parsing failed, navigation log unavailable